Terminal Aerodrome Forecast
Issued by NWS

Home | Current Version | Previous Version | Graphics & Text | Print | Product List | Glossary On
Versions: 1 2 3 4 5 6 7 8 9 10 11 12 13
481
FTUS43 KOAX 040524
TAFCDR
TAF
KCDR 040524Z 0406/0506 26006KT P6SM SCT250
     FM041800 28008KT P6SM BKN200
     FM042200 27007KT P6SM BKN100=

USA.gov is the U.S. government's official web portal to all federal, state and local government web resources and services.